Time;durP1;ratioP1;P1;durP2;ratioP2;P2;SDS_P1;SDS_P2;PMS_P1;PMS_P2;Temp;Humidity;BMP_temperature;BMP_pressure;BME280_temperature;BME280_humidity;BME280_pressure;Samples;Min_cycle;Max_cycle;Signal;HPM_P1;HPM_P2
2022/04/08 00:02:15;;;;;;;0.93;0.70;;;;;;;9.35;100.00;95164.31;5017793;28;20198;-85
2022/04/08 00:04:52;;;;;;;2.23;0.80;;;;;;;9.23;100.00;95169.00;5023866;28;20217;-86
2022/04/08 00:07:19;;;;;;;1.03;0.80;;;;;;;9.19;100.00;95195.59;5024733;28;20214;-86
2022/04/08 00:09:48;;;;;;;0.80;0.80;;;;;;;9.21;100.00;95181.88;5019901;28;20205;-86
2022/04/08 00:12:15;;;;;;;0.90;0.70;;;;;;;9.14;100.00;95170.50;5021137;28;20270;-86
2022/04/08 00:14:42;;;;;;;2.33;0.83;;;;;;;9.09;100.00;95180.16;5021810;28;20272;-84
2022/04/08 00:17:09;;;;;;;1.43;0.60;;;;;;;9.07;100.00;95139.19;5026531;28;20227;-85
2022/04/08 00:19:37;;;;;;;1.80;0.70;;;;;;;9.02;100.00;95178.66;5025932;28;20252;-85
2022/04/08 00:22:05;;;;;;;2.13;0.70;;;;;;;9.06;100.00;95148.31;5028787;28;20244;-86
2022/04/08 00:24:32;;;;;;;1.77;0.70;;;;;;;9.06;100.00;95099.84;5026007;28;20217;-87
2022/04/08 00:27:01;;;;;;;1.97;0.70;;;;;;;8.96;100.00;95115.06;5024543;28;20202;-85
2022/04/08 00:29:28;;;;;;;0.70;0.70;;;;;;;9.00;100.00;95135.06;5023983;28;20338;-85
2022/04/08 00:31:57;;;;;;;0.80;0.80;;;;;;;8.93;100.00;95121.75;5027287;28;20276;-85
2022/04/08 00:34:25;;;;;;;0.77;0.70;;;;;;;8.93;100.00;95121.75;5017738;28;20226;-85
2022/04/08 00:36:53;;;;;;;0.70;0.70;;;;;;;8.96;100.00;95169.72;5025274;28;20290;-87
2022/04/08 00:39:20;;;;;;;0.80;0.73;;;;;;;8.96;100.00;95188.56;5038572;28;20234;-86
2022/04/08 00:41:48;;;;;;;0.70;0.70;;;;;;;9.09;100.00;95153.22;5021549;28;20213;-85
2022/04/08 00:44:16;;;;;;;0.70;0.70;;;;;;;9.15;100.00;95115.56;5040839;28;20237;-86
2022/04/08 00:46:44;;;;;;;0.77;0.70;;;;;;;9.08;100.00;95116.59;5018828;28;20205;-86
2022/04/08 00:49:11;;;;;;;0.87;0.87;;;;;;;9.03;100.00;95161.47;5033537;28;20194;-86
2022/04/08 00:51:40;;;;;;;0.90;0.70;;;;;;;9.02;100.00;95162.53;5023584;28;20297;-86
2022/04/08 00:54:08;;;;;;;1.67;0.70;;;;;;;8.98;100.00;95167.59;5021492;28;20227;-86
2022/04/08 00:56:37;;;;;;;2.80;0.77;;;;;;;8.95;100.00;95141.16;5022575;28;20199;-86
2022/04/08 00:59:05;;;;;;;0.83;0.70;;;;;;;8.97;100.00;95112.13;5026375;28;20248;-85
2022/04/08 01:01:33;;;;;;;0.70;0.70;;;;;;;9.03;100.00;95121.06;5023749;28;20209;-85
2022/04/08 01:04:00;;;;;;;1.27;0.80;;;;;;;9.04;100.00;95147.75;5027399;28;20266;-86
2022/04/08 01:06:28;;;;;;;0.77;0.73;;;;;;;9.08;100.00;95143.50;5021974;28;20211;-86
2022/04/08 01:08:55;;;;;;;0.80;0.67;;;;;;;9.22;100.00;95153.91;5022183;28;20213;-86
2022/04/08 01:11:23;;;;;;;0.67;0.67;;;;;;;9.19;100.00;95157.06;5025858;28;20217;-87
2022/04/08 01:13:51;;;;;;;1.20;0.80;;;;;;;9.16;100.00;95162.97;5025429;28;20226;-86
2022/04/08 01:16:19;;;;;;;1.23;0.80;;;;;;;9.10;100.00;95152.13;5017784;28;20333;-86
2022/04/08 01:18:48;;;;;;;0.60;0.60;;;;;;;9.14;100.00;95138.19;5033780;28;20246;-86
2022/04/08 01:21:15;;;;;;;0.67;0.67;;;;;;;9.18;100.00;95172.44;5030702;28;20230;-86
2022/04/08 01:23:47;;;;;;;0.77;0.70;;;;;;;9.15;100.00;95177.50;5018604;28;20211;-86
2022/04/08 01:26:16;;;;;;;0.70;0.70;;;;;;;9.21;100.00;95157.66;5020066;28;20211;-86
2022/04/08 01:28:45;;;;;;;0.60;0.60;;;;;;;9.17;100.00;95143.88;5015959;28;20229;-85
2022/04/08 01:31:13;;;;;;;0.87;0.87;;;;;;;9.07;100.00;95136.50;5025970;28;20210;-84
2022/04/08 01:33:42;;;;;;;0.73;0.73;;;;;;;9.02;100.00;95157.13;5019794;28;20226;-86
2022/04/08 01:36:09;;;;;;;0.70;0.70;;;;;;;9.06;100.00;95174.44;5023279;28;20240;-85
2022/04/08 01:38:36;;;;;;;0.67;0.63;;;;;;;9.16;100.00;95168.38;5028357;28;20203;-84
2022/04/08 01:41:03;;;;;;;0.70;0.70;;;;;;;9.16;100.00;95157.59;5020876;28;20230;-86
2022/04/08 01:43:32;;;;;;;0.63;0.63;;;;;;;9.14;100.00;95165.09;5019712;28;20198;-85
2022/04/08 01:46:00;;;;;;;1.67;0.80;;;;;;;9.10;100.00;95168.28;5021942;28;20218;-86
2022/04/08 01:48:27;;;;;;;0.67;0.67;;;;;;;9.07;100.00;95160.72;5026363;28;20314;-85
2022/04/08 01:50:54;;;;;;;0.80;0.70;;;;;;;9.10;100.00;95175.59;5045568;28;20198;-86
2022/04/08 01:53:21;;;;;;;0.70;0.70;;;;;;;9.04;100.00;95171.97;5021151;28;20204;-85
2022/04/08 01:55:48;;;;;;;1.23;0.70;;;;;;;9.09;100.00;95187.41;5029569;28;20320;-85
2022/04/08 01:58:15;;;;;;;0.60;0.60;;;;;;;9.07;100.00;95193.03;5028168;28;20214;-86
2022/04/08 02:00:43;;;;;;;0.70;0.70;;;;;;;9.01;100.00;95201.31;5026453;28;20306;-86
2022/04/08 02:03:11;;;;;;;0.60;0.60;;;;;;;8.96;100.00;95207.41;5028130;28;20199;-86
2022/04/08 02:05:38;;;;;;;0.70;0.70;;;;;;;9.01;100.00;95210.19;5038331;28;20203;-87
2022/04/08 02:08:06;;;;;;;1.77;0.57;;;;;;;9.00;100.00;95219.34;5026842;28;20206;-86
2022/04/08 02:10:33;;;;;;;3.27;0.70;;;;;;;8.98;100.00;95209.88;5038924;28;20218;-86
2022/04/08 02:13:00;;;;;;;0.70;0.60;;;;;;;8.95;100.00;95215.72;5027880;28;20202;-86
2022/04/08 02:15:31;;;;;;;0.70;0.70;;;;;;;8.98;100.00;95220.63;5039817;28;20241;-87
2022/04/08 02:18:01;;;;;;;3.33;0.73;;;;;;;8.99;100.00;95227.66;5053233;28;20226;-84
2022/04/08 02:20:30;;;;;;;1.00;0.90;;;;;;;9.01;100.00;95242.50;5026505;28;20221;-86
2022/04/08 02:22:59;;;;;;;0.60;0.60;;;;;;;8.95;100.00;95234.56;5019839;28;20206;-86
2022/04/08 02:25:26;;;;;;;1.63;1.03;;;;;;;8.96;100.00;95223.56;5033760;28;20237;-87
2022/04/08 02:27:53;;;;;;;1.97;0.90;;;;;;;8.94;100.00;95214.91;5025760;28;20273;-87
2022/04/08 02:30:21;;;;;;;1.90;0.90;;;;;;;8.85;100.00;95208.31;5026549;28;20238;-87
2022/04/08 02:32:48;;;;;;;0.90;0.70;;;;;;;8.83;100.00;95217.72;5025128;28;20230;-85
2022/04/08 02:35:17;;;;;;;2.27;0.80;;;;;;;8.88;100.00;95242.00;5025189;28;20313;-87
2022/04/08 02:37:44;;;;;;;2.00;0.70;;;;;;;8.88;100.00;95220.47;5027960;28;20209;-85
2022/04/08 02:40:12;;;;;;;1.03;0.60;;;;;;;8.88;100.00;95221.28;5024983;28;20206;-86
2022/04/08 02:42:39;;;;;;;0.60;0.60;;;;;;;8.81;100.00;95234.13;5034098;28;20206;-87
2022/04/08 02:45:08;;;;;;;2.17;0.90;;;;;;;8.77;100.00;95246.41;5028188;28;20216;-86
2022/04/08 02:47:41;;;;;;;1.27;0.70;;;;;;;8.81;100.00;95241.38;5018877;28;20210;-86
2022/04/08 02:50:09;;;;;;;2.07;0.83;;;;;;;8.88;100.00;95233.94;5025488;28;20270;-87
2022/04/08 02:52:38;;;;;;;1.77;0.70;;;;;;;8.76;100.00;95217.91;5024590;28;20206;-86
2022/04/08 02:55:06;;;;;;;0.70;0.70;;;;;;;8.78;100.00;95241.84;5028302;28;20237;-87
2022/04/08 02:57:37;;;;;;;1.43;0.83;;;;;;;8.75;100.00;95251.25;5024744;28;20314;-86
2022/04/08 03:00:05;;;;;;;0.93;0.80;;;;;;;8.81;100.00;95236.00;5023755;28;20195;-86
2022/04/08 03:02:32;;;;;;;0.80;0.80;;;;;;;8.79;100.00;95238.09;5025691;28;20206;-86
2022/04/08 03:05:06;;;;;;;0.90;0.70;;;;;;;8.79;100.00;95240.78;5028483;28;20203;-86
2022/04/08 03:07:33;;;;;;;1.00;0.80;;;;;;;8.78;100.00;95231.09;5027118;28;20221;-86
2022/04/08 03:10:02;;;;;;;1.40;0.80;;;;;;;8.78;100.00;95245.34;5038055;28;20200;-84
2022/04/08 03:12:29;;;;;;;0.73;0.70;;;;;;;8.78;100.00;95244.53;5013714;28;20299;-85
2022/04/08 03:14:56;;;;;;;0.80;0.80;;;;;;;8.82;100.00;95249.22;5038488;28;20222;-85
2022/04/08 03:17:24;;;;;;;0.80;0.80;;;;;;;8.77;100.00;95237.53;5028028;28;20217;-86
2022/04/08 03:19:51;;;;;;;1.90;0.93;;;;;;;8.69;100.00;95222.63;5019914;28;20202;-87
2022/04/08 03:22:20;;;;;;;0.87;0.87;;;;;;;8.68;100.00;95227.19;5030376;28;20210;-86
2022/04/08 03:24:47;;;;;;;1.00;0.90;;;;;;;8.62;100.00;95230.03;5028099;28;20237;-85
2022/04/08 03:27:16;;;;;;;2.40;1.00;;;;;;;8.62;100.00;95230.03;5040481;28;20203;-87
2022/04/08 03:29:44;;;;;;;1.63;0.90;;;;;;;8.63;100.00;95223.59;5023338;28;20210;-87
2022/04/08 03:32:12;;;;;;;3.50;0.80;;;;;;;8.56;100.00;95217.56;5027337;28;20286;-86
2022/04/08 03:34:39;;;;;;;0.93;0.70;;;;;;;8.52;100.00;95209.16;5000810;28;20223;-85
2022/04/08 03:37:06;;;;;;;0.90;0.80;;;;;;;8.58;100.00;95215.47;4998755;28;20212;-85
2022/04/08 03:39:33;;;;;;;2.63;0.70;;;;;;;8.58;100.00;95210.09;5003819;28;20323;-86
2022/04/08 03:42:00;;;;;;;2.90;0.73;;;;;;;8.57;100.00;95209.25;4990105;28;20207;-86
2022/04/08 03:44:29;;;;;;;1.87;1.00;;;;;;;8.58;100.00;95205.53;5005362;28;20196;-86
2022/04/08 03:46:56;;;;;;;1.73;1.10;;;;;;;8.61;100.00;95198.81;5002510;28;20222;-85
2022/04/08 03:49:26;;;;;;;0.93;0.90;;;;;;;8.62;100.00;95200.44;5003276;28;20204;-84
2022/04/08 03:51:54;;;;;;;1.27;1.00;;;;;;;8.62;100.00;95187.00;5001046;28;20230;-86
2022/04/08 03:54:21;;;;;;;2.87;0.97;;;;;;;8.60;100.00;95192.59;4999352;28;20285;-85
2022/04/08 03:56:48;;;;;;;2.43;1.90;;;;;;;8.63;100.00;95202.06;5005741;28;20203;-85
2022/04/08 03:59:16;;;;;;;3.77;1.13;;;;;;;8.60;100.00;95186.41;4989452;28;20203;-85
2022/04/08 04:01:44;;;;;;;1.60;1.20;;;;;;;8.62;100.00;95185.13;5004136;28;20211;-86
2022/04/08 04:04:11;;;;;;;1.33;1.00;;;;;;;8.59;100.00;95168.66;5002875;28;20208;-86
2022/04/08 04:06:39;;;;;;;1.70;1.10;;;;;;;8.57;100.00;95181.53;5001958;28;20306;-85
2022/04/08 04:09:06;;;;;;;3.53;2.90;;;;;;;8.56;100.00;95178.03;5003973;28;20227;-85
2022/04/08 04:11:33;;;;;;;3.10;1.57;;;;;;;8.49;100.00;95172.00;5003619;28;20219;-86
2022/04/08 04:14:00;;;;;;;3.07;1.40;;;;;;;8.60;100.00;95187.22;4998331;28;20200;-86
2022/04/08 04:16:27;;;;;;;1.10;1.00;;;;;;;8.55;100.00;95180.97;5003799;28;20243;-85
2022/04/08 04:18:56;;;;;;;2.50;1.33;;;;;;;8.57;100.00;95186.94;5002526;28;20290;-86
2022/04/08 04:21:23;;;;;;;1.67;1.57;;;;;;;8.57;100.00;95174.28;5003036;28;20204;-85
2022/04/08 04:23:51;;;;;;;5.13;2.70;;;;;;;8.48;100.00;95158.81;5002852;28;20196;-85
2022/04/08 04:26:18;;;;;;;7.87;3.70;;;;;;;8.47;100.00;95166.06;5002935;28;20208;-85
2022/04/08 04:28:45;;;;;;;3.00;1.97;;;;;;;8.50;100.00;95175.53;5005122;28;20271;-85
2022/04/08 04:31:12;;;;;;;5.60;3.50;;;;;;;8.47;100.00;95170.63;4996793;28;20211;-85
2022/04/08 04:33:39;;;;;;;7.60;3.73;;;;;;;8.41;100.00;95168.91;5001365;28;20343;-85
2022/04/08 04:36:08;;;;;;;3.93;2.20;;;;;;;8.34;100.00;95167.19;5010593;28;20230;-85
2022/04/08 04:38:35;;;;;;;2.20;1.80;;;;;;;8.33;100.00;95170.97;5025728;28;20208;-85
2022/04/08 04:41:02;;;;;;;3.43;1.63;;;;;;;8.29;100.00;95164.41;5009469;28;20204;-85
2022/04/08 04:43:29;;;;;;;4.03;1.60;;;;;;;8.34;100.00;95172.56;5007225;28;20520;-83
2022/04/08 04:45:56;;;;;;;3.23;1.40;;;;;;;8.27;100.00;95171.88;4993208;28;20265;-83
2022/04/08 04:48:23;;;;;;;3.83;2.00;;;;;;;8.35;100.00;95163.44;5005737;28;20207;-85
2022/04/08 04:50:50;;;;;;;6.33;2.40;;;;;;;8.32;100.00;95169.34;5005426;28;20215;-85
2022/04/08 04:53:19;;;;;;;5.43;3.20;;;;;;;8.26;100.00;95159.50;5001388;28;20211;-84
2022/04/08 04:55:46;;;;;;;5.27;3.80;;;;;;;8.22;100.00;95168.31;5011195;28;20229;-84
2022/04/08 04:58:13;;;;;;;5.77;3.90;;;;;;;8.22;100.00;95169.13;5002109;28;20294;-83
2022/04/08 05:00:40;;;;;;;5.13;3.43;;;;;;;8.31;100.00;95173.06;4989936;28;20196;-84
2022/04/08 05:03:08;;;;;;;4.30;3.10;;;;;;;8.30;100.00;95160.66;5011050;28;20207;-84
2022/04/08 05:05:35;;;;;;;4.87;2.70;;;;;;;8.32;100.00;95161.25;5001346;28;20211;-84
2022/04/08 05:08:03;;;;;;;4.40;2.40;;;;;;;8.29;100.00;95169.78;5000111;28;20211;-84
2022/04/08 05:10:34;;;;;;;5.07;2.43;;;;;;;8.32;100.00;95163.94;5004072;28;20206;-83
2022/04/08 05:13:02;;;;;;;5.00;4.47;;;;;;;8.29;100.00;95150.97;5002255;28;20235;-84
2022/04/08 05:15:32;;;;;;;3.37;2.90;;;;;;;8.33;100.00;95168.28;5005339;28;20267;-83
2022/04/08 05:18:00;;;;;;;4.20;2.37;;;;;;;8.31;100.00;95162.31;4994523;28;20207;-85
2022/04/08 05:20:27;;;;;;;2.70;2.50;;;;;;;8.28;100.00;95149.31;4992912;28;20211;-85
2022/04/08 05:22:54;;;;;;;3.57;2.87;;;;;;;8.33;100.00;95145.94;5005022;28;20203;-85
2022/04/08 05:25:21;;;;;;;3.83;2.63;;;;;;;8.34;100.00;95142.97;4998492;28;20288;-85
2022/04/08 05:27:51;;;;;;;4.03;2.40;;;;;;;8.41;100.00;95144.72;4999967;28;20250;-84
2022/04/08 05:30:18;;;;;;;3.43;2.83;;;;;;;8.35;100.00;95133.84;4998555;28;20261;-84
2022/04/08 05:32:46;;;;;;;4.57;3.47;;;;;;;8.39;100.00;95128.00;4999757;28;20251;-84
2022/04/08 05:35:15;;;;;;;2.63;2.40;;;;;;;8.32;100.00;95126.31;5002861;28;20218;-84
2022/04/08 05:37:43;;;;;;;3.50;2.50;;;;;;;8.28;100.00;95118.91;4997482;28;20204;-85
2022/04/08 05:40:14;;;;;;;4.00;2.60;;;;;;;8.35;100.00;95112.34;5016568;28;20204;-84
2022/04/08 05:42:42;;;;;;;4.27;2.40;;;;;;;8.40;100.00;95113.50;5000911;28;20212;-84
2022/04/08 05:45:12;;;;;;;2.93;1.90;;;;;;;8.37;100.00;95108.59;4997256;28;20516;-85
2022/04/08 05:47:39;;;;;;;3.03;2.10;;;;;;;8.39;100.00;95104.63;5004044;28;20214;-84
2022/04/08 05:50:08;;;;;;;3.23;2.53;;;;;;;8.33;100.00;95110.97;4997357;28;20195;-84
2022/04/08 05:52:35;;;;;;;4.30;2.50;;;;;;;8.28;100.00;95106.28;5004121;28;20212;-85
2022/04/08 05:55:02;;;;;;;4.40;2.53;;;;;;;8.37;100.00;95109.41;4998893;28;20211;-85
2022/04/08 05:57:36;;;;;;;5.67;2.33;;;;;;;8.47;100.00;95108.75;5005861;28;20301;-85
2022/04/08 06:00:06;;;;;;;3.00;2.40;;;;;;;8.48;100.00;95095.06;4999985;28;20356;-81
2022/04/08 06:02:35;;;;;;;3.80;2.00;;;;;;;8.56;100.00;95107.28;4997169;28;20307;-85
2022/04/08 06:05:02;;;;;;;2.20;2.00;;;;;;;8.60;100.00;95111.91;5005887;28;20212;-84
2022/04/08 06:07:29;;;;;;;3.50;2.10;;;;;;;8.68;100.00;95111.47;4988753;28;20204;-85
2022/04/08 06:09:59;;;;;;;2.13;1.70;;;;;;;8.67;100.00;95103.66;4991537;28;20299;-81
2022/04/08 06:12:27;;;;;;;2.77;1.93;;;;;;;8.73;100.00;95102.66;5005608;28;20231;-82
2022/04/08 06:14:54;;;;;;;2.27;2.03;;;;;;;8.79;100.00;95103.53;5001017;28;20207;-79
2022/04/08 06:17:21;;;;;;;3.87;2.13;;;;;;;8.73;100.00;95094.59;5020905;28;20258;-80
2022/04/08 06:19:50;;;;;;;2.90;2.00;;;;;;;8.70;100.00;95092.38;4998541;28;20227;-79
2022/04/08 06:22:17;;;;;;;4.30;1.90;;;;;;;8.74;100.00;95085.47;4989488;28;20228;-78
2022/04/08 06:24:45;;;;;;;3.10;1.70;;;;;;;8.75;100.00;95089.78;5004076;28;20271;-81
2022/04/08 06:27:12;;;;;;;1.67;1.57;;;;;;;8.79;100.00;95082.81;5003269;28;20210;-82
2022/04/08 06:29:39;;;;;;;1.93;1.60;;;;;;;8.90;100.00;95079.19;5000927;28;20195;-80
2022/04/08 06:32:08;;;;;;;2.27;1.47;;;;;;;8.90;100.00;95076.50;5001040;28;20239;-82
2022/04/08 06:34:35;;;;;;;1.50;1.40;;;;;;;9.01;100.00;95080.97;5014531;28;20210;-81
2022/04/08 06:37:04;;;;;;;1.90;1.80;;;;;;;9.11;100.00;95082.94;5011797;28;20226;-81
2022/04/08 06:39:31;;;;;;;2.47;1.70;;;;;;;9.16;100.00;95068.72;5020903;28;20226;-81
2022/04/08 06:41:58;;;;;;;2.77;1.50;;;;;;;9.25;100.00;95076.13;5015752;28;20212;-82
2022/04/08 06:44:27;;;;;;;1.70;1.60;;;;;;;9.25;100.00;95069.91;5017763;28;20226;-81
2022/04/08 06:46:54;;;;;;;2.07;1.57;;;;;;;9.31;100.00;95063.50;5024434;28;20211;-82
2022/04/08 06:49:21;;;;;;;1.33;1.23;;;;;;;9.36;100.00;95066.25;5019672;28;20203;-85
2022/04/08 06:51:49;;;;;;;1.97;1.50;;;;;;;9.40;100.00;95073.56;5024005;28;20206;-81
2022/04/08 06:54:17;;;;;;;1.37;1.20;;;;;;;9.49;100.00;95071.25;5015519;28;20227;-80
2022/04/08 06:56:44;;;;;;;1.20;1.10;;;;;;;9.52;100.00;95059.97;5019257;28;20223;-82
2022/04/08 06:59:12;;;;;;;0.90;0.90;;;;;;;9.53;100.00;95045.41;5021965;28;20238;-85
2022/04/08 07:01:39;;;;;;;3.57;1.57;;;;;;;9.49;100.00;95045.13;5021940;28;20218;-82
2022/04/08 07:04:06;;;;;;;8.00;2.80;;;;;;;9.58;100.00;95029.28;5020192;28;20293;-81
2022/04/08 07:06:33;;;;;;;1.70;1.60;;;;;;;9.52;100.00;95038.41;5025236;28;20206;-81
2022/04/08 07:09:00;;;;;;;4.23;1.90;;;;;;;9.50;100.00;95024.38;5025145;28;20207;-82
2022/04/08 07:11:29;;;;;;;2.20;2.00;;;;;;;9.54;100.00;95020.09;5037099;28;20291;-82
2022/04/08 07:13:56;;;;;;;2.47;2.20;;;;;;;9.67;100.00;95021.56;5024449;28;20204;-81
2022/04/08 07:16:23;;;;;;;2.33;2.13;;;;;;;9.78;100.00;94999.03;5019018;28;20336;-81
2022/04/08 07:18:50;;;;;;;1.80;1.30;;;;;;;9.79;100.00;95000.63;5040602;28;20206;-85
2022/04/08 07:21:18;;;;;;;2.43;1.50;;;;;;;9.88;100.00;94999.88;5025805;28;20220;-85
2022/04/08 07:23:45;;;;;;;2.90;1.47;;;;;;;9.92;100.00;94985.91;5024527;28;20218;-81
2022/04/08 07:26:12;;;;;;;2.77;1.20;;;;;;;9.99;100.00;94976.50;5022332;28;20213;-82
2022/04/08 07:28:40;;;;;;;1.77;1.37;;;;;;;9.93;100.00;94977.56;5016175;28;20203;-81
2022/04/08 07:31:08;;;;;;;1.63;1.40;;;;;;;9.95;100.00;94966.50;5024105;28;20239;-82
2022/04/08 07:33:35;;;;;;;2.13;1.50;;;;;;;9.96;100.00;94963.53;5009660;28;20242;-81
2022/04/08 07:36:03;;;;;;;1.40;1.30;;;;;;;10.07;100.00;94951.75;5001145;28;20278;-82
2022/04/08 07:38:30;;;;;;;2.17;1.23;;;;;;;10.19;100.00;94956.97;4996876;28;20212;-81
2022/04/08 07:40:58;;;;;;;2.20;1.20;;;;;;;10.26;100.00;94946.75;4999880;28;20279;-80
2022/04/08 07:43:25;;;;;;;1.60;1.10;;;;;;;10.23;100.00;94960.75;4999437;28;20203;-80
2022/04/08 07:45:54;;;;;;;1.33;1.00;;;;;;;10.26;100.00;94941.38;4998769;28;20275;-82
2022/04/08 07:48:21;;;;;;;1.90;1.20;;;;;;;10.30;100.00;94947.84;4992147;28;20212;-82
2022/04/08 07:50:48;;;;;;;1.60;1.10;;;;;;;10.42;100.00;94944.94;4998317;28;20212;-81
2022/04/08 07:53:15;;;;;;;1.40;1.30;;;;;;;10.56;100.00;94951.47;5004323;28;20224;-81
2022/04/08 07:55:43;;;;;;;1.13;1.00;;;;;;;10.66;100.00;94939.91;4992774;28;20214;-82
2022/04/08 07:58:09;;;;;;;2.93;1.10;;;;;;;10.70;100.00;94946.41;4998180;28;20199;-81
2022/04/08 08:00:37;;;;;;;1.67;1.20;;;;;;;10.77;100.00;94931.59;5012386;28;20270;-82
2022/04/08 08:03:06;;;;;;;0.90;0.90;;;;;;;10.83;100.00;94937.81;5003763;28;20203;-82
2022/04/08 08:05:33;;;;;;;1.10;1.00;;;;;;;10.85;100.00;94930.25;4999403;28;20254;-80
2022/04/08 08:08:03;;;;;;;1.07;0.97;;;;;;;11.05;100.00;94924.91;5005808;28;20203;-82
2022/04/08 08:10:32;;;;;;;2.20;1.30;;;;;;;11.11;100.00;94914.91;4994691;28;20209;-82
2022/04/08 08:13:00;;;;;;;2.97;1.23;;;;;;;11.09;100.00;94911.66;4999731;28;20278;-81
2022/04/08 08:15:28;;;;;;;2.30;1.30;;;;;;;11.13;100.00;94934.38;5001747;28;20477;-81
2022/04/08 08:17:57;;;;;;;1.30;1.10;;;;;;;11.08;100.00;94916.25;5007055;28;20270;-81
2022/04/08 08:20:26;;;;;;;1.20;0.97;;;;;;;10.97;100.00;94903.84;4997140;28;20295;-82
2022/04/08 08:22:54;;;;;;;2.70;1.20;;;;;;;10.84;100.00;94891.63;4998696;28;20355;-81
2022/04/08 08:25:21;;;;;;;2.37;1.30;;;;;;;10.92;100.00;94898.41;5012135;28;20208;-81
2022/04/08 08:27:49;;;;;;;3.83;1.03;;;;;;;11.04;100.00;94896.28;4998916;28;20229;-81
2022/04/08 08:30:17;;;;;;;1.90;1.27;;;;;;;11.14;100.00;94888.19;4998228;28;20220;-81
2022/04/08 08:32:47;;;;;;;1.77;1.17;;;;;;;11.17;100.00;94898.44;4995089;28;20231;-82
2022/04/08 08:35:17;;;;;;;1.73;1.00;;;;;;;11.35;100.00;94899.78;5005213;28;20275;-81
2022/04/08 08:37:46;;;;;;;2.27;0.90;;;;;;;11.48;100.00;94866.03;5002758;28;20240;-81
2022/04/08 08:40:14;;;;;;;2.20;1.00;;;;;;;11.48;100.00;94857.91;4997575;28;20192;-81
2022/04/08 08:42:42;;;;;;;0.83;0.80;;;;;;;11.62;100.00;94867.91;4991738;28;20208;-82
2022/04/08 08:45:11;;;;;;;1.13;0.90;;;;;;;11.79;100.00;94883.84;4994146;28;20204;-81
2022/04/08 08:47:39;;;;;;;1.00;0.90;;;;;;;11.95;100.00;94869.22;4995996;28;20224;-81
2022/04/08 08:50:08;;;;;;;2.40;0.90;;;;;;;12.08;100.00;94860.50;5002798;28;20204;-82
2022/04/08 08:52:35;;;;;;;0.90;0.90;;;;;;;12.04;100.00;94862.16;4998273;28;20231;-82
2022/04/08 08:55:06;;;;;;;1.57;1.10;;;;;;;12.21;100.00;94852.91;4994806;28;20219;-82
2022/04/08 08:57:34;;;;;;;4.37;1.10;;;;;;;12.31;100.00;94852.84;5015216;28;20220;-81
2022/04/08 09:00:07;;;;;;;3.07;1.17;;;;;;;12.41;100.00;94844.69;4997587;28;20296;-81
2022/04/08 09:02:35;;;;;;;1.47;1.10;;;;;;;12.48;100.00;94853.31;5001990;28;20208;-82
2022/04/08 09:05:11;;;;;;;1.27;1.10;;;;;;;12.51;100.00;94852.75;5006182;28;20254;-81
2022/04/08 09:07:38;;;;;;;1.70;1.20;;;;;;;12.53;100.00;94858.69;4998170;28;20306;-82
2022/04/08 09:10:08;;;;;;;1.00;1.00;;;;;;;12.49;100.00;94854.94;4991676;28;20200;-81
2022/04/08 09:12:35;;;;;;;1.33;1.07;;;;;;;12.57;100.00;94858.97;4998914;28;20223;-82
2022/04/08 09:15:03;;;;;;;1.30;1.20;;;;;;;12.57;100.00;94861.66;4997614;28;20216;-82
2022/04/08 09:17:30;;;;;;;0.80;0.80;;;;;;;12.63;100.00;94866.78;5004314;28;20224;-83
2022/04/08 09:19:59;;;;;;;1.53;1.10;;;;;;;12.45;100.00;94853.88;5002604;28;20205;-82
2022/04/08 09:22:29;;;;;;;1.10;0.80;;;;;;;12.46;100.00;94848.19;4997244;28;20212;-83
2022/04/08 09:25:06;;;;;;;0.83;0.83;;;;;;;12.55;100.00;94853.00;4998812;28;20215;-82
2022/04/08 09:27:35;;;;;;;3.43;1.53;;;;;;;12.63;100.00;94874.91;4996934;28;20219;-82
2022/04/08 09:30:02;;;;;;;1.10;1.00;;;;;;;12.55;100.00;94870.06;5000014;28;20218;-81
2022/04/08 09:32:29;;;;;;;1.63;1.03;;;;;;;12.65;100.00;94883.56;4997639;28;20240;-82
2022/04/08 09:34:57;;;;;;;1.07;0.90;;;;;;;12.61;100.00;94874.34;4995449;28;20232;-82
2022/04/08 09:37:25;;;;;;;1.23;1.00;;;;;;;12.51;100.00;94867.09;4987122;28;20278;-81
2022/04/08 09:39:57;;;;;;;1.17;1.07;;;;;;;12.54;100.00;94879.28;4996693;28;20203;-82
2022/04/08 09:42:26;;;;;;;1.27;1.00;;;;;;;12.50;100.00;94889.06;5001219;28;20218;-82
2022/04/08 09:44:54;;;;;;;0.80;0.80;;;;;;;12.43;100.00;94891.22;5004668;28;20213;-81
2022/04/08 09:47:21;;;;;;;1.73;1.00;;;;;;;12.55;100.00;94880.09;5006539;28;20219;-82
2022/04/08 09:49:48;;;;;;;2.17;1.27;;;;;;;12.55;100.00;94885.50;4994902;28;20208;-82
2022/04/08 09:52:17;;;;;;;1.23;1.00;;;;;;;12.59;100.00;94881.94;4993601;28;20286;-82
2022/04/08 09:54:45;;;;;;;2.73;1.07;;;;;;;12.64;100.00;94883.84;5005112;28;20258;-82
2022/04/08 09:57:18;;;;;;;1.50;1.20;;;;;;;12.66;100.00;94882.47;4998898;28;20247;-82
2022/04/08 09:59:47;;;;;;;1.90;1.03;;;;;;;12.77;100.00;94878.59;4998583;28;20200;-82
2022/04/08 10:02:17;;;;;;;3.53;1.40;;;;;;;12.74;100.00;94889.19;4992623;28;20199;-82
2022/04/08 10:04:45;;;;;;;2.03;1.00;;;;;;;12.75;100.00;94891.63;4990484;28;20200;-81
2022/04/08 10:07:13;;;;;;;2.13;1.20;;;;;;;12.73;100.00;94888.38;5016687;28;20310;-81
2022/04/08 10:09:49;;;;;;;1.67;1.47;;;;;;;12.71;100.00;94890.56;4993532;28;20227;-82
2022/04/08 10:12:25;;;;;;;3.00;1.40;;;;;;;12.74;100.00;94889.19;4996406;28;20211;-82
2022/04/08 10:15:00;;;;;;;1.27;1.17;;;;;;;12.74;100.00;94878.38;4998765;28;20219;-83
2022/04/08 10:17:28;;;;;;;2.03;1.30;;;;;;;12.89;100.00;94897.25;5011767;28;20235;-82
2022/04/08 10:20:05;;;;;;;2.47;1.30;;;;;;;12.98;100.00;94892.03;5004847;28;20330;-82
2022/04/08 10:22:42;;;;;;;2.00;1.40;;;;;;;12.95;100.00;94898.00;4997527;28;20204;-82
2022/04/08 10:25:15;;;;;;;1.67;1.20;;;;;;;12.80;100.00;94894.31;5001471;28;20230;-82
2022/04/08 10:27:44;;;;;;;1.80;1.50;;;;;;;12.60;100.00;94888.97;5002018;28;20212;-81
2022/04/08 10:30:13;;;;;;;1.93;1.40;;;;;;;12.77;100.00;94892.16;5006408;28;20211;-82
2022/04/08 10:32:42;;;;;;;1.20;1.10;;;;;;;12.68;100.00;94885.69;5004453;28;20239;-82
2022/04/08 10:35:16;;;;;;;1.73;1.30;;;;;;;12.72;100.00;94886.78;4993139;28;20223;-82
2022/04/08 10:37:55;;;;;;;1.93;1.20;;;;;;;12.63;100.00;94872.19;5006495;28;20231;-82
2022/04/08 10:40:22;;;;;;;2.37;1.50;;;;;;;12.54;100.00;94873.03;4998277;28;20218;-82
2022/04/08 10:42:57;;;;;;;2.83;1.10;;;;;;;12.52;100.00;94849.75;5005914;28;20222;-82
2022/04/08 10:45:25;;;;;;;1.43;1.17;;;;;;;12.65;100.00;94821.28;5002006;28;20274;-81
2022/04/08 10:47:53;;;;;;;2.17;1.10;;;;;;;12.87;100.00;94808.13;4992001;28;20204;-82
2022/04/08 10:50:28;;;;;;;2.20;1.13;;;;;;;13.06;100.00;94785.78;4999536;28;20207;-82
2022/04/08 10:53:08;;;;;;;3.37;1.13;;;;;;;13.12;100.00;94792.75;5004843;28;20218;-82
2022/04/08 10:55:46;;;;;;;1.40;1.30;;;;;;;13.31;100.00;94784.78;5001408;28;20219;-83
2022/04/08 10:58:15;;;;;;;1.50;1.37;;;;;;;13.46;100.00;94771.06;5001544;28;20226;-81
2022/04/08 11:00:44;;;;;;;3.20;1.30;;;;;;;13.54;100.00;94751.47;4998230;28;20199;-82
2022/04/08 11:03:12;;;;;;;3.43;1.30;;;;;;;13.66;100.00;94748.38;5002983;28;20207;-82
2022/04/08 11:05:40;;;;;;;2.50;1.50;;;;;;;13.78;100.00;94740.66;5003226;28;20204;-82
2022/04/08 11:08:08;;;;;;;1.93;1.30;;;;;;;13.88;100.00;94737.78;5011180;28;20355;-82
2022/04/08 11:10:35;;;;;;;2.57;1.17;;;;;;;14.02;100.00;94722.44;5000710;28;20204;-81
2022/04/08 11:13:02;;;;;;;1.10;1.00;;;;;;;13.99;100.00;94714.88;5004332;28;20227;-81
2022/04/08 11:15:31;;;;;;;1.93;1.10;;;;;;;14.14;100.00;94697.56;5002525;28;20244;-81
2022/04/08 11:18:01;;;;;;;1.83;1.30;;;;;;;14.27;100.00;94684.09;5000627;28;20228;-82
2022/04/08 11:20:29;;;;;;;3.27;0.80;;;;;;;14.23;99.73;94682.25;4999568;28;20279;-80
2022/04/08 11:22:58;;;;;;;3.43;1.20;;;;;;;14.33;100.00;94666.63;4995848;28;20212;-81
2022/04/08 11:25:27;;;;;;;2.50;1.10;;;;;;;14.54;100.00;94661.72;5003415;28;20235;-85
2022/04/08 11:28:01;;;;;;;0.87;0.80;;;;;;;14.64;100.00;94658.81;5000783;28;20281;-82
2022/04/08 11:30:29;;;;;;;2.37;1.10;;;;;;;14.63;100.00;94642.84;4996481;28;20219;-82
2022/04/08 11:32:56;;;;;;;2.40;1.00;;;;;;;14.70;100.00;94665.00;4994018;28;20228;-82
2022/04/08 11:35:27;;;;;;;4.53;1.00;;;;;;;14.92;100.00;94673.31;5003111;28;20294;-82
2022/04/08 11:37:56;;;;;;;1.00;0.80;;;;;;;15.18;100.00;94672.84;5002077;28;20227;-82